Time;durP1;ratioP1;P1;durP2;ratioP2;P2;SDS_P1;SDS_P2;PMS_P1;PMS_P2;Temp;Humidity;BMP_temperature;BMP_pressure;BME280_temperature;BME280_humidity;BME280_pressure;Samples;Min_cycle;Max_cycle;Signal;HPM_P1;HPM_P2
2023/03/01 00:01:22;;;;;;;1.63;1.10;;;;;;;6.48;100.00;100871.78;5053238;28;20028;-72
2023/03/01 00:03:48;;;;;;;1.08;0.90;;;;;;;6.00;100.00;100791.69;5071395;28;20449;-72
2023/03/01 00:06:14;;;;;;;1.13;0.80;;;;;;;6.70;100.00;100880.25;5071359;28;20032;-71
2023/03/01 00:08:39;;;;;;;1.13;0.75;;;;;;;6.40;100.00;100848.19;5070994;28;20053;-71
2023/03/01 00:11:29;;;;;;;1.10;0.70;;;;;;;6.73;100.00;100891.25;5053546;28;20032;-72
2023/03/01 00:13:56;;;;;;;1.00;0.80;;;;;;;6.26;100.00;100846.50;5053408;28;20033;-72
2023/03/01 00:16:27;;;;;;;0.75;0.75;;;;;;;6.23;100.00;100839.75;5071569;28;20030;-71
2023/03/01 00:18:57;;;;;;;0.98;0.70;;;;;;;6.20;100.00;100816.19;5071490;28;20032;-71
2023/03/01 00:21:23;;;;;;;0.85;0.70;;;;;;;6.50;100.00;100869.25;5053534;28;20028;-71
2023/03/01 00:23:49;;;;;;;1.08;0.80;;;;;;;6.27;100.00;100811.13;5071172;28;20032;-71
2023/03/01 00:26:16;;;;;;;1.83;0.90;;;;;;;6.53;100.00;100806.16;5052558;28;20025;-72
2023/03/01 00:28:42;;;;;;;1.08;0.75;;;;;;;6.00;100.00;100410.66;5071192;28;20037;-72
2023/03/01 00:31:21;;;;;;;2.03;1.00;;;;;;;6.29;100.00;100463.59;5070888;28;20036;-72
2023/03/01 00:33:47;;;;;;;1.25;0.90;;;;;;;6.67;100.00;100499.66;5050275;28;20047;-71
2023/03/01 00:36:15;;;;;;;1.70;1.25;;;;;;;6.71;100.00;100501.34;5071144;28;20039;-71
2023/03/01 00:38:42;;;;;;;2.03;1.40;;;;;;;6.78;100.00;100561.09;5070468;28;20029;-72
2023/03/01 00:41:11;;;;;;;2.25;1.55;;;;;;;6.70;100.00;100807.84;5070895;28;20059;-71
2023/03/01 00:43:37;;;;;;;0.80;0.80;;;;;;;6.58;100.00;100809.50;5071001;28;20112;-72
2023/03/01 00:46:04;;;;;;;1.20;0.90;;;;;;;6.31;100.00;100792.63;5071305;28;20028;-72
2023/03/01 00:48:30;;;;;;;1.02;0.80;;;;;;;6.46;100.00;100782.56;5072051;28;20032;-72
2023/03/01 00:50:55;;;;;;;1.15;0.90;;;;;;;6.72;100.00;100821.31;5074645;28;20047;-72
2023/03/01 00:53:21;;;;;;;1.83;1.20;;;;;;;6.61;100.00;100805.31;5074728;28;20468;-71
2023/03/01 00:55:46;;;;;;;2.55;1.70;;;;;;;6.28;100.00;100764.84;5074536;28;20608;-72
2023/03/01 00:58:11;;;;;;;2.13;1.70;;;;;;;6.72;100.00;100823.84;5074935;28;20028;-72
2023/03/01 01:00:37;;;;;;;1.40;1.20;;;;;;;6.67;100.00;100828.06;5074550;28;20051;-71
2023/03/01 01:03:02;;;;;;;1.20;0.90;;;;;;;6.43;100.00;100787.63;5057095;28;20514;-72
2023/03/01 01:05:28;;;;;;;1.92;0.70;;;;;;;6.53;100.00;100844.88;5074992;28;20856;-72
2023/03/01 01:07:53;;;;;;;1.40;0.98;;;;;;;6.59;100.00;100839.84;5075056;28;20412;-72
2023/03/01 01:10:20;;;;;;;1.42;0.90;;;;;;;6.54;100.00;100838.13;5074514;28;20063;-72
2023/03/01 01:12:46;;;;;;;0.98;0.77;;;;;;;6.24;100.00;100753.06;5057460;28;20522;-71
2023/03/01 01:15:13;;;;;;;0.70;0.70;;;;;;;6.19;100.00;100741.25;5074874;28;20119;-72
2023/03/01 01:17:40;;;;;;;0.50;0.50;;;;;;;6.43;100.00;100789.28;5056743;28;20028;-72
2023/03/01 01:20:06;;;;;;;0.82;0.70;;;;;;;6.47;100.00;100784.25;5074403;28;20098;-72
2023/03/01 01:22:31;;;;;;;0.52;0.52;;;;;;;6.67;100.00;100837.31;5074537;28;20437;-72
2023/03/01 01:24:57;;;;;;;1.02;0.50;;;;;;;6.66;100.00;100840.69;5068997;28;20036;-72
2023/03/01 01:27:22;;;;;;;2.20;0.98;;;;;;;6.40;100.00;100787.59;5056593;28;20078;-72
2023/03/01 01:29:48;;;;;;;1.05;0.80;;;;;;;6.82;100.00;100845.75;5056448;28;20035;-72
2023/03/01 01:32:13;;;;;;;0.80;0.68;;;;;;;6.60;100.00;100836.47;5074280;28;20036;-71
2023/03/01 01:34:39;;;;;;;0.90;0.70;;;;;;;6.28;100.00;100792.63;5074843;28;20066;-72
2023/03/01 01:37:07;;;;;;;0.93;0.73;;;;;;;6.35;100.00;100803.56;5074271;28;20032;-71
2023/03/01 01:39:33;;;;;;;0.70;0.55;;;;;;;6.23;100.00;100780.81;5056936;28;20509;-72
2023/03/01 01:42:00;;;;;;;1.35;0.60;;;;;;;6.54;100.00;100836.44;5056399;28;20162;-72
2023/03/01 01:44:28;;;;;;;0.90;0.70;;;;;;;6.33;100.00;100783.38;5072772;28;20033;-72
2023/03/01 01:47:01;;;;;;;0.93;0.70;;;;;;;6.64;100.00;100835.63;5073974;28;20056;-72
2023/03/01 01:49:48;;;;;;;1.52;1.00;;;;;;;6.49;100.00;100791.81;5074309;28;20115;-72
2023/03/01 01:52:20;;;;;;;1.30;0.70;;;;;;;6.74;100.00;100839.00;5074032;28;20025;-71
2023/03/01 01:54:48;;;;;;;1.00;0.80;;;;;;;6.70;100.00;100834.78;5073885;28;20029;-72
2023/03/01 01:57:19;;;;;;;0.70;0.70;;;;;;;6.52;100.00;100817.06;5073825;28;20119;-72
2023/03/01 01:59:52;;;;;;;0.88;0.80;;;;;;;6.72;100.00;100831.44;5055261;28;20024;-72
2023/03/01 02:02:19;;;;;;;0.50;0.50;;;;;;;6.33;100.00;100770.75;5055396;28;20043;-72
2023/03/01 02:04:46;;;;;;;0.60;0.60;;;;;;;6.81;100.00;100831.44;5055918;28;20086;-72
2023/03/01 02:07:19;;;;;;;0.60;0.60;;;;;;;6.78;100.00;100805.31;5056033;28;20040;-72
2023/03/01 02:09:50;;;;;;;0.60;0.55;;;;;;;6.93;100.00;100821.34;5074231;28;20135;-72
2023/03/01 02:12:22;;;;;;;0.70;0.60;;;;;;;6.27;100.00;100745.50;5073887;28;20062;-71
2023/03/01 02:14:48;;;;;;;0.70;0.50;;;;;;;6.94;100.00;100833.13;5055305;28;20056;-72
2023/03/01 02:17:17;;;;;;;0.60;0.50;;;;;;;6.68;100.00;100773.31;5073765;28;20108;-72
2023/03/01 02:20:16;;;;;;;0.52;0.50;;;;;;;6.85;100.00;100829.78;5073739;28;20040;-74
2023/03/01 02:22:44;;;;;;;0.50;0.45;;;;;;;6.85;100.00;100839.88;5073715;28;20043;-71
2023/03/01 02:25:19;;;;;;;0.60;0.40;;;;;;;6.84;100.00;100833.13;5073472;28;20570;-72
2023/03/01 02:28:13;;;;;;;0.45;0.45;;;;;;;6.67;100.00;100832.28;5073818;28;20103;-72
2023/03/01 02:31:41;;;;;;;1.30;0.55;;;;;;;6.75;100.00;100839.03;5049735;28;20491;-72
2023/03/01 02:33:25;;;;;;;0.38;0.38;;;;;;;6.79;100.00;100833.09;5072111;28;20043;-72
2023/03/01 02:35:52;;;;;;;0.43;0.43;;;;;;;6.80;100.00;100824.69;5073290;28;20505;-72
2023/03/01 02:38:18;;;;;;;0.60;0.50;;;;;;;6.53;100.00;100780.88;5071750;28;20097;-72
2023/03/01 02:40:44;;;;;;;0.63;0.60;;;;;;;6.58;100.00;100792.69;5086841;28;20132;-73
2023/03/01 02:43:11;;;;;;;1.17;0.60;;;;;;;7.03;100.00;100843.25;5072943;28;20112;-72
2023/03/01 02:45:37;;;;;;;0.80;0.70;;;;;;;6.79;100.00;100807.84;5054757;28;20020;-73
2023/03/01 02:48:02;;;;;;;2.95;0.68;;;;;;;7.08;100.00;100827.22;5073005;28;20039;-72
2023/03/01 02:50:28;;;;;;;0.90;0.70;;;;;;;7.07;100.00;100846.63;5073149;28;20189;-72
2023/03/01 02:53:01;;;;;;;0.80;0.70;;;;;;;7.00;100.00;100835.69;5055013;28;20024;-72
2023/03/01 02:55:27;;;;;;;0.82;0.70;;;;;;;7.00;100.00;100838.19;5055121;28;20036;-72
2023/03/01 02:57:54;;;;;;;0.70;0.70;;;;;;;7.07;100.00;100834.00;5072258;28;20036;-73
2023/03/01 03:00:28;;;;;;;1.00;0.80;;;;;;;6.91;100.00;100853.34;5072936;28;20085;-72
2023/03/01 03:02:56;;;;;;;0.90;0.60;;;;;;;6.61;100.00;100797.75;5070498;28;20036;-72
2023/03/01 03:05:31;;;;;;;0.68;0.60;;;;;;;7.21;100.00;100841.56;5073086;28;20153;-72
2023/03/01 03:07:59;;;;;;;0.90;0.80;;;;;;;6.83;100.00;100794.38;5072114;28;20043;-73
2023/03/01 03:10:27;;;;;;;1.10;0.75;;;;;;;6.64;100.00;100787.63;5072976;28;20115;-72
2023/03/01 03:13:00;;;;;;;0.80;0.70;;;;;;;6.66;100.00;100793.53;5054821;28;20028;-72
2023/03/01 03:15:27;;;;;;;1.27;1.00;;;;;;;6.82;100.00;100796.91;5054857;28;20082;-74
2023/03/01 03:17:53;;;;;;;1.80;1.40;;;;;;;7.03;100.00;100819.66;5054590;28;20468;-73
2023/03/01 03:20:21;;;;;;;1.92;1.40;;;;;;;6.78;100.00;100787.63;5072741;28;20036;-73
2023/03/01 03:22:49;;;;;;;3.53;1.60;;;;;;;7.22;100.00;100840.72;5072818;28;20440;-73
2023/03/01 03:25:15;;;;;;;1.48;1.00;;;;;;;6.85;100.00;100789.34;5053942;28;20131;-73
2023/03/01 03:27:44;;;;;;;1.17;0.90;;;;;;;6.63;100.00;100785.97;5072137;28;20064;-74
2023/03/01 03:30:13;;;;;;;1.30;0.80;;;;;;;6.57;100.00;100791.00;5053904;28;20286;-73
2023/03/01 03:32:51;;;;;;;0.88;0.80;;;;;;;6.93;100.00;100833.97;5054181;28;20032;-74
2023/03/01 03:35:25;;;;;;;1.05;0.80;;;;;;;6.44;100.00;100773.31;5054947;28;20054;-73
2023/03/01 03:38:05;;;;;;;0.88;0.70;;;;;;;6.46;100.00;100732.03;5058268;28;20032;-72
2023/03/01 03:40:33;;;;;;;0.82;0.55;;;;;;;6.51;100.00;100791.00;5050440;28;20044;-71
2023/03/01 03:42:58;;;;;;;1.08;0.80;;;;;;;6.59;100.00;100806.16;5050289;28;20055;-73
2023/03/01 03:45:24;;;;;;;1.17;1.00;;;;;;;6.48;100.00;100785.94;5063681;28;20067;-72
2023/03/01 03:47:49;;;;;;;2.78;1.67;;;;;;;6.65;100.00;100780.91;5054087;28;20111;-72
2023/03/01 03:50:16;;;;;;;3.17;2.60;;;;;;;6.55;100.00;100782.59;5072183;28;20033;-72
2023/03/01 03:52:42;;;;;;;3.53;2.90;;;;;;;6.91;100.00;100835.66;5053805;28;20093;-71
2023/03/01 03:55:10;;;;;;;3.47;2.58;;;;;;;7.08;100.00;100844.94;5051440;28;20457;-73
2023/03/01 03:57:39;;;;;;;3.03;1.70;;;;;;;6.77;100.00;100796.88;5071992;28;20025;-73
2023/03/01 04:00:12;;;;;;;1.02;0.70;;;;;;;6.83;100.00;100833.97;5054386;28;20036;-73
2023/03/01 04:02:45;;;;;;;1.88;0.90;;;;;;;6.82;100.00;100777.53;5052827;28;20039;-72
2023/03/01 04:05:14;;;;;;;0.93;0.82;;;;;;;6.95;100.00;100831.47;5053916;28;20070;-72
2023/03/01 04:07:40;;;;;;;1.52;1.02;;;;;;;6.64;100.00;100792.69;5071690;28;20028;-72
2023/03/01 04:10:10;;;;;;;1.20;0.80;;;;;;;6.81;100.00;100820.50;5064681;28;20084;-71
2023/03/01 04:12:36;;;;;;;1.60;1.20;;;;;;;6.82;100.00;100828.06;5041089;28;20033;-72
2023/03/01 04:15:14;;;;;;;1.15;0.85;;;;;;;6.98;100.00;100834.84;5033460;28;20487;-72
2023/03/01 04:17:41;;;;;;;2.03;0.95;;;;;;;6.51;100.00;100773.31;5068596;28;20032;-70
2023/03/01 04:20:09;;;;;;;5.63;1.35;;;;;;;7.47;100.00;100728.53;5070894;28;20086;-73
2023/03/01 04:22:35;;;;;;;4.82;1.02;;;;;;;8.09;100.00;100825.31;5052497;28;20036;-72
2023/03/01 04:25:06;;;;;;;2.45;1.40;;;;;;;6.75;100.00;100777.53;5055375;28;20025;-74
2023/03/01 04:27:35;;;;;;;2.08;1.60;;;;;;;6.80;100.00;100804.50;5071569;28;20027;-74
2023/03/01 04:30:03;;;;;;;2.13;1.63;;;;;;;6.67;100.00;100777.53;5066601;28;20032;-74
2023/03/01 04:32:28;;;;;;;3.85;2.70;;;;;;;6.79;100.00;100771.66;5069792;28;20063;-73
2023/03/01 04:34:54;;;;;;;3.20;2.70;;;;;;;6.88;100.00;100767.44;5071304;28;20064;-71
2023/03/01 04:37:19;;;;;;;3.40;2.00;;;;;;;6.97;100.00;100832.31;5071587;28;20025;-74
2023/03/01 04:39:47;;;;;;;2.58;2.10;;;;;;;6.75;100.00;100777.53;5071470;28;20020;-72
2023/03/01 04:42:14;;;;;;;3.05;2.42;;;;;;;7.03;100.00;100816.28;5071730;28;20028;-70
2023/03/01 04:44:40;;;;;;;2.60;1.90;;;;;;;7.07;100.00;100808.72;5071037;28;20479;-72
2023/03/01 04:47:05;;;;;;;2.53;1.70;;;;;;;6.83;100.00;100771.63;5070978;28;20115;-72
2023/03/01 04:49:31;;;;;;;2.10;1.58;;;;;;;6.77;100.00;100758.19;5053158;28;20032;-72
2023/03/01 04:52:01;;;;;;;2.00;1.50;;;;;;;6.63;100.00;100753.13;5052988;28;20123;-71
2023/03/01 04:54:27;;;;;;;1.90;1.70;;;;;;;6.70;100.00;100769.94;5070536;28;20021;-72
2023/03/01 04:56:53;;;;;;;2.80;2.00;;;;;;;7.62;100.00;100817.06;5070222;28;20028;-72
2023/03/01 04:59:22;;;;;;;2.75;1.98;;;;;;;6.85;100.00;100790.16;5051709;28;20502;-72
2023/03/01 05:01:48;;;;;;;2.50;1.85;;;;;;;6.98;100.00;100817.13;5052011;28;20388;-72
2023/03/01 05:04:14;;;;;;;2.63;2.10;;;;;;;6.97;100.00;100823.03;5070777;28;20037;-72
2023/03/01 05:06:39;;;;;;;2.60;2.10;;;;;;;6.95;100.00;100832.28;5070830;28;20025;-71
2023/03/01 05:09:05;;;;;;;3.97;3.13;;;;;;;6.79;100.00;100780.03;5044885;28;20538;-72
2023/03/01 05:11:33;;;;;;;6.05;4.97;;;;;;;6.64;100.00;100761.53;5050745;28;20035;-72
2023/03/01 05:13:59;;;;;;;3.95;3.55;;;;;;;7.16;100.00;100817.97;5032324;28;20033;-71
2023/03/01 05:16:24;;;;;;;2.83;2.10;;;;;;;6.58;100.00;100733.72;5050067;28;20102;-70
2023/03/01 05:18:52;;;;;;;2.53;2.00;;;;;;;7.11;100.00;100827.25;5050089;28;20040;-72
2023/03/01 05:21:18;;;;;;;2.17;1.70;;;;;;;6.95;100.00;100804.47;5032603;28;20029;-71
2023/03/01 05:23:44;;;;;;;2.10;1.77;;;;;;;6.55;100.00;100749.75;5049828;28;20044;-71
2023/03/01 05:26:09;;;;;;;2.42;1.90;;;;;;;6.43;100.00;100775.00;5051140;28;20025;-71
2023/03/01 05:28:35;;;;;;;2.72;1.70;;;;;;;6.92;100.00;100846.63;5048593;28;20036;-71
2023/03/01 05:31:01;;;;;;;3.70;2.10;;;;;;;6.95;100.00;100855.03;5020249;28;20079;-70
2023/03/01 05:33:27;;;;;;;3.00;2.15;;;;;;;6.93;100.00;100854.19;5050336;28;20040;-71
2023/03/01 05:35:53;;;;;;;3.53;2.42;;;;;;;6.99;100.00;100863.50;5051420;28;20037;-73
2023/03/01 05:38:20;;;;;;;2.67;2.22;;;;;;;7.03;100.00;100857.59;5036289;28;20649;-72
2023/03/01 05:40:48;;;;;;;4.03;2.22;;;;;;;6.59;100.00;100796.06;5035258;28;20035;-71
2023/03/01 05:43:15;;;;;;;3.78;2.65;;;;;;;6.75;100.00;100820.50;5054416;28;20075;-73
2023/03/01 05:45:41;;;;;;;6.80;2.70;;;;;;;6.95;100.00;100867.66;5053979;28;20036;-73
2023/03/01 05:48:08;;;;;;;4.68;2.67;;;;;;;6.75;100.00;100805.34;5036748;28;20451;-73
2023/03/01 05:50:39;;;;;;;5.22;3.30;;;;;;;6.65;100.00;100822.16;5036669;28;20052;-75
2023/03/01 05:53:09;;;;;;;3.92;2.50;;;;;;;6.87;100.00;100858.41;5053623;28;20035;-74
2023/03/01 05:55:36;;;;;;;4.45;3.17;;;;;;;6.58;100.00;100807.84;5052907;28;20099;-73
2023/03/01 05:58:03;;;;;;;4.10;2.60;;;;;;;6.69;100.00;100836.50;5036070;28;20127;-74
2023/03/01 06:00:30;;;;;;;5.38;3.10;;;;;;;6.59;100.00;100799.44;5054258;28;20036;-74
2023/03/01 06:02:57;;;;;;;3.70;2.05;;;;;;;6.74;100.00;100819.66;5054045;28;20029;-74
2023/03/01 06:05:22;;;;;;;3.85;2.60;;;;;;;6.95;100.00;100874.44;5053948;28;20033;-74
2023/03/01 06:07:48;;;;;;;3.25;2.25;;;;;;;6.82;100.00;100829.75;5054310;28;20056;-74
2023/03/01 06:10:14;;;;;;;4.10;2.40;;;;;;;6.76;100.00;100848.28;5050245;28;20045;-74
2023/03/01 06:12:41;;;;;;;4.18;2.95;;;;;;;6.96;100.00;100876.97;5053152;28;20087;-74
2023/03/01 06:15:09;;;;;;;4.13;2.85;;;;;;;6.70;100.00;100807.84;5053979;28;20491;-74
2023/03/01 06:17:37;;;;;;;5.43;3.15;;;;;;;6.65;100.00;100819.66;5054131;28;20082;-74
2023/03/01 06:20:10;;;;;;;4.90;2.90;;;;;;;6.69;100.00;100813.75;5054006;28;20419;-74
2023/03/01 06:22:35;;;;;;;4.05;2.85;;;;;;;6.63;100.00;100807.84;5053579;28;20511;-72
2023/03/01 06:25:01;;;;;;;4.57;2.75;;;;;;;6.95;100.00;100862.63;5053671;28;20033;-74
2023/03/01 06:27:26;;;;;;;4.57;2.72;;;;;;;6.93;100.00;100866.81;5054062;28;20399;-73
2023/03/01 06:29:52;;;;;;;4.60;3.00;;;;;;;6.59;100.00;100796.91;5053698;28;20037;-74
2023/03/01 06:32:18;;;;;;;6.88;4.50;;;;;;;7.00;100.00;100860.09;5053461;28;20025;-74
2023/03/01 06:34:43;;;;;;;8.30;4.40;;;;;;;6.91;100.00;100852.53;5053429;28;20025;-73
2023/03/01 06:37:09;;;;;;;7.32;4.72;;;;;;;6.78;100.00;100808.69;5051875;28;20095;-73
2023/03/01 06:39:36;;;;;;;6.05;4.50;;;;;;;6.60;100.00;100790.16;5052767;28;20476;-74
2023/03/01 06:42:01;;;;;;;6.13;3.75;;;;;;;7.00;100.00;100863.47;5052998;28;20063;-74
2023/03/01 06:44:27;;;;;;;4.68;3.30;;;;;;;7.00;100.00;100870.22;5053511;28;20060;-74
2023/03/01 06:46:53;;;;;;;4.38;3.17;;;;;;;6.80;100.00;100832.28;5053280;28;20021;-74
2023/03/01 06:49:19;;;;;;;4.85;3.42;;;;;;;7.16;100.00;100873.59;5053497;28;20039;-73
2023/03/01 06:51:46;;;;;;;5.43;3.30;;;;;;;7.05;100.00;100876.13;5053233;28;20048;-73
2023/03/01 06:54:11;;;;;;;5.93;3.78;;;;;;;6.67;100.00;100802.81;5053451;28;20029;-74
2023/03/01 06:56:37;;;;;;;7.72;5.28;;;;;;;6.68;100.00;100808.69;5052065;28;20029;-74
2023/03/01 06:59:02;;;;;;;5.35;3.88;;;;;;;6.71;100.00;100816.28;5053331;28;20448;-74
2023/03/01 07:01:29;;;;;;;5.88;4.65;;;;;;;6.97;100.00;100858.41;5053546;28;20049;-74
2023/03/01 07:03:54;;;;;;;5.45;3.78;;;;;;;7.12;100.00;100869.38;5052881;28;20040;-74
2023/03/01 07:06:20;;;;;;;4.90;3.40;;;;;;;7.06;100.00;100880.31;5052768;28;20017;-73
2023/03/01 07:08:46;;;;;;;3.45;2.55;;;;;;;6.80;100.00;100828.91;5051626;28;20052;-74
2023/03/01 07:11:12;;;;;;;4.68;2.90;;;;;;;7.11;100.00;100862.66;5051953;28;20037;-73
2023/03/01 07:13:38;;;;;;;4.82;2.90;;;;;;;7.01;100.00;100870.19;5053104;28;20044;-74
2023/03/01 07:16:03;;;;;;;5.45;3.40;;;;;;;6.56;100.00;100770.78;5051743;28;20403;-73
2023/03/01 07:18:29;;;;;;;4.85;2.72;;;;;;;7.12;100.00;100865.16;5052579;28;20108;-73
2023/03/01 07:20:54;;;;;;;4.45;2.70;;;;;;;6.82;100.00;100839.88;5051690;28;20029;-73
2023/03/01 07:23:20;;;;;;;3.97;2.53;;;;;;;6.97;100.00;100872.75;5052148;28;20027;-74
2023/03/01 07:25:52;;;;;;;6.57;3.40;;;;;;;7.14;100.00;100865.16;5051430;28;20032;-74
2023/03/01 07:28:17;;;;;;;5.20;2.60;;;;;;;6.96;100.00;100868.53;5051384;28;20025;-74
2023/03/01 07:30:42;;;;;;;5.15;2.80;;;;;;;6.89;100.00;100869.38;5052351;28;20041;-74
2023/03/01 07:33:08;;;;;;;3.55;2.22;;;;;;;6.72;100.00;100818.81;5051722;28;20106;-74
2023/03/01 07:35:33;;;;;;;5.85;2.97;;;;;;;6.73;100.00;100812.06;5051391;28;20029;-73
2023/03/01 07:38:00;;;;;;;4.57;2.70;;;;;;;7.05;100.00;100872.75;5051205;28;20136;-74
2023/03/01 07:40:25;;;;;;;6.28;3.90;;;;;;;6.97;100.00;100870.22;5051043;28;20090;-74
2023/03/01 07:42:58;;;;;;;5.18;3.63;;;;;;;6.94;100.00;100860.09;5052465;28;20474;-75
2023/03/01 07:45:24;;;;;;;8.32;4.55;;;;;;;6.99;100.00;100859.25;5051320;28;20029;-75
2023/03/01 07:47:51;;;;;;;8.60;4.32;;;;;;;7.03;100.00;100844.94;5052396;28;20029;-75
2023/03/01 07:50:17;;;;;;;8.57;4.68;;;;;;;7.14;100.00;100867.69;5051990;28;20035;-71
2023/03/01 07:52:45;;;;;;;8.50;4.38;;;;;;;6.74;100.00;100816.25;5052644;28;20111;-75
2023/03/01 07:55:11;;;;;;;7.45;3.90;;;;;;;6.95;100.00;100855.03;5050912;28;20526;-72
2023/03/01 07:57:36;;;;;;;5.97;3.97;;;;;;;6.96;100.00;100856.72;5051840;28;20115;-74
2023/03/01 08:00:03;;;;;;;5.00;3.30;;;;;;;7.01;100.00;100862.63;5051481;28;20037;-75
2023/03/01 08:02:28;;;;;;;6.75;4.13;;;;;;;6.98;100.00;100846.63;5051852;28;20035;-74
2023/03/01 08:04:54;;;;;;;5.72;4.00;;;;;;;6.77;100.00;100799.41;5051551;28;20123;-73
2023/03/01 08:07:19;;;;;;;7.07;4.57;;;;;;;7.08;100.00;100829.75;5052213;28;20472;-74
2023/03/01 08:09:44;;;;;;;9.98;5.53;;;;;;;7.22;100.00;100844.09;5078367;28;20073;-74
2023/03/01 08:12:10;;;;;;;7.00;3.50;;;;;;;7.09;100.00;100860.09;5091852;28;20038;-74
2023/03/01 08:14:35;;;;;;;5.03;3.33;;;;;;;7.16;100.00;100859.25;5091628;28;20035;-74
2023/03/01 08:17:02;;;;;;;5.22;3.70;;;;;;;7.19;100.00;100858.44;5091129;28;20055;-74
2023/03/01 08:19:28;;;;;;;5.13;3.40;;;;;;;7.15;100.00;100869.38;5073588;28;20028;-74
2023/03/01 08:21:54;;;;;;;5.72;3.55;;;;;;;7.21;100.00;100866.84;5073845;28;20031;-74
2023/03/01 08:24:19;;;;;;;5.47;3.60;;;;;;;7.20;100.00;100867.69;5073563;28;20024;-74
2023/03/01 08:26:45;;;;;;;4.13;3.47;;;;;;;7.05;100.00;100830.63;5091535;28;20024;-74
2023/03/01 08:29:10;;;;;;;4.78;2.90;;;;;;;6.83;100.00;100816.28;5073644;28;20062;-74
2023/03/01 08:31:38;;;;;;;6.38;3.53;;;;;;;7.18;100.00;100866.84;5090876;28;20028;-74
2023/03/01 08:34:10;;;;;;;5.15;3.20;;;;;;;7.15;100.00;100864.31;5092210;28;20039;-76
2023/03/01 08:36:38;;;;;;;6.10;4.05;;;;;;;7.22;100.00;100854.22;5092525;28;20089;-74
2023/03/01 08:39:04;;;;;;;5.93;3.95;;;;;;;6.89;100.00;100799.44;5091803;28;20506;-74
2023/03/01 08:41:30;;;;;;;6.65;4.75;;;;;;;7.23;100.00;100878.63;5091565;28;20035;-74
2023/03/01 08:43:58;;;;;;;5.88;3.90;;;;;;;6.95;100.00;100824.69;5082895;28;20028;-74
2023/03/01 08:46:30;;;;;;;6.25;4.13;;;;;;;7.24;100.00;100882.00;5052843;28;20479;-74
2023/03/01 08:48:56;;;;;;;7.70;4.47;;;;;;;7.28;100.00;100859.25;5053057;28;20115;-74
2023/03/01 08:51:23;;;;;;;7.00;4.53;;;;;;;7.34;100.00;100853.34;5070767;28;20489;-75
2023/03/01 08:53:48;;;;;;;8.57;5.53;;;;;;;6.97;100.00;100807.03;5071163;28;20142;-75
2023/03/01 08:56:14;;;;;;;8.80;5.40;;;;;;;7.44;100.00;100860.94;5070745;28;20036;-74
2023/03/01 08:58:43;;;;;;;7.05;3.88;;;;;;;7.14;100.00;100855.03;5053359;28;20464;-74
2023/03/01 09:01:11;;;;;;;6.65;4.60;;;;;;;7.29;100.00;100871.06;5074183;28;20028;-73
2023/03/01 09:03:36;;;;;;;6.28;4.18;;;;;;;6.95;100.00;100823.88;5073508;28;20096;-74
2023/03/01 09:06:04;;;;;;;6.93;4.25;;;;;;;7.05;100.00;100810.41;5091045;28;20043;-75
2023/03/01 09:08:30;;;;;;;6.50;3.92;;;;;;;7.26;100.00;100853.38;5091411;28;20024;-74
2023/03/01 09:10:55;;;;;;;5.75;3.97;;;;;;;7.07;100.00;100810.41;5094693;28;20029;-75
2023/03/01 09:13:24;;;;;;;4.57;3.50;;;;;;;6.79;100.00;100772.47;5086277;28;20025;-74
2023/03/01 09:15:51;;;;;;;7.57;4.65;;;;;;;7.46;100.00;100871.06;5056602;28;20064;-73
2023/03/01 09:18:16;;;;;;;9.73;5.65;;;;;;;7.48;100.00;100859.25;5075281;28;20029;-74
2023/03/01 09:20:41;;;;;;;9.73;6.57;;;;;;;7.28;100.00;100823.00;5074981;28;20384;-74
2023/03/01 09:23:07;;;;;;;11.52;6.20;;;;;;;7.27;100.00;100831.47;5057389;28;20024;-74
2023/03/01 09:25:34;;;;;;;10.30;6.68;;;;;;;7.09;100.00;100776.66;5056750;28;20060;-74
2023/03/01 09:28:00;;;;;;;11.02;6.90;;;;;;;7.62;100.00;100870.19;5056721;28;20062;-74
2023/03/01 09:30:25;;;;;;;13.57;7.63;;;;;;;7.83;100.00;100870.97;5073929;28;20111;-73
2023/03/01 09:32:50;;;;;;;9.18;6.03;;;;;;;7.47;100.00;100802.75;5056726;28;20035;-74
2023/03/01 09:35:16;;;;;;;7.35;5.10;;;;;;;7.39;100.00;100817.09;5074873;28;20033;-74
2023/03/01 09:37:45;;;;;;;10.50;5.60;;;;;;;7.67;100.00;100853.28;5056796;28;20050;-73
2023/03/01 09:40:16;;;;;;;7.10;5.40;;;;;;;7.68;100.00;100855.00;5056822;28;20466;-73
2023/03/01 09:43:30;;;;;;;7.20;5.75;;;;;;;7.72;100.00;100861.75;5074915;28;20553;-74
2023/03/01 09:46:03;;;;;;;8.18;5.25;;;;;;;7.39;100.00;100831.44;5050192;28;20039;-74
2023/03/01 09:48:37;;;;;;;8.90;5.95;;;;;;;7.36;100.00;100807.00;5074020;28;20068;-74
2023/03/01 09:51:09;;;;;;;7.35;5.18;;;;;;;7.45;100.00;100851.66;5074209;28;20060;-74
2023/03/01 09:53:35;;;;;;;;;;;;;;;7.57;100.00;100859.22;5074913;28;20040;-74
2023/03/01 09:56:12;;;;;;;9.63;6.18;;;;;;;7.42;100.00;100789.28;5056285;28;19955;-74
2023/03/01 09:59:21;;;;;;;10.40;6.30;;;;;;;7.71;100.00;100848.22;5074125;28;20064;-74
2023/03/01 10:01:58;;;;;;;8.90;5.25;;;;;;;7.50;100.00;100849.97;5072718;28;20033;-74
2023/03/01 10:04:45;;;;;;;7.50;5.50;;;;;;;7.61;100.00;100853.31;5056827;28;20039;-74
2023/03/01 10:07:17;;;;;;;9.40;6.57;;;;;;;7.75;100.00;100849.91;5056251;28;20119;-74
2023/03/01 10:09:45;;;;;;;14.43;8.02;;;;;;;7.54;100.00;100804.44;5074146;28;20040;-76
2023/03/01 10:12:18;;;;;;;10.30;7.05;;;;;;;7.42;100.00;100791.81;5074323;28;20031;-75
2023/03/01 10:14:58;;;;;;;8.63;5.72;;;;;;;7.39;100.00;100849.16;5056241;28;20048;-74
2023/03/01 10:18:02;;;;;;;10.18;5.90;;;;;;;7.49;100.00;100853.31;4700741;28;10000153;-75
2023/03/01 10:20:55;;;;;;;12.50;7.82;;;;;;;7.30;100.00;100793.50;5049208;28;20044;-74
2023/03/01 10:23:24;;;;;;;12.68;7.55;;;;;;;7.39;100.00;100814.56;5050655;28;20411;-75
2023/03/01 10:26:07;;;;;;;9.55;6.07;;;;;;;7.61;100.00;100843.19;5051507;28;20626;-74
2023/03/01 10:28:36;;;;;;;10.77;8.13;;;;;;;7.75;100.00;100841.47;5049661;28;20056;-75
2023/03/01 10:31:02;;;;;;;9.95;6.03;;;;;;;8.21;100.00;100835.41;5051103;28;20033;-78
2023/03/01 10:33:35;;;;;;;14.18;8.57;;;;;;;7.44;100.00;100782.53;5051213;28;20029;-76
2023/03/01 10:36:01;;;;;;;13.55;8.57;;;;;;;7.35;100.00;100771.59;5050923;28;20064;-73
2023/03/01 10:38:31;;;;;;;12.82;7.53;;;;;;;7.67;100.00;100828.84;5051417;28;20040;-74
2023/03/01 10:40:59;;;;;;;10.43;6.63;;;;;;;7.57;100.00;100836.44;5050582;28;20065;-75
2023/03/01 10:43:46;;;;;;;8.63;5.85;;;;;;;7.52;100.00;100818.78;5052636;28;20031;-75
2023/03/01 10:46:32;;;;;;;13.55;7.43;;;;;;;7.72;100.00;100826.31;5040661;28;20041;-74
2023/03/01 10:49:18;;;;;;;11.20;5.82;;;;;;;7.72;100.00;100821.25;5085125;28;20054;-76
2023/03/01 10:51:46;;;;;;;11.13;6.78;;;;;;;7.41;100.00;100771.56;5076090;28;20024;-75
2023/03/01 10:54:16;;;;;;;8.55;5.80;;;;;;;7.69;100.00;100822.09;5094240;28;20038;-75
2023/03/01 10:56:50;;;;;;;9.68;6.93;;;;;;;7.51;100.00;100766.47;5093570;28;20066;-75
2023/03/01 10:59:29;;;;;;;11.05;6.63;;;;;;;7.56;100.00;100809.47;5094418;28;20024;-76
2023/03/01 11:02:28;;;;;;;10.77;6.20;;;;;;;7.77;100.00;100810.25;5094034;28;20032;-75
2023/03/01 11:05:12;;;;;;;10.80;7.05;;;;;;;7.89;100.00;100802.63;5092536;28;20074;-75
2023/03/01 11:08:06;;;;;;;10.90;6.75;;;;;;;7.62;100.00;100792.59;5093671;28;20024;-76
2023/03/01 11:10:36;;;;;;;10.65;6.68;;;;;;;7.41;100.00;100733.59;5079891;28;20097;-75
2023/03/01 11:13:15;;;;;;;8.50;5.40;;;;;;;7.30;100.00;100740.41;5075848;28;20035;-75
2023/03/01 11:15:41;;;;;;;7.20;5.05;;;;;;;7.45;100.00;100789.25;5071652;28;20035;-75
2023/03/01 11:18:20;;;;;;;7.57;5.20;;;;;;;7.07;100.00;100729.50;5073769;28;20028;-76
2023/03/01 11:20:51;;;;;;;8.20;5.50;;;;;;;7.18;100.00;100735.38;5072975;28;20043;-75
2023/03/01 11:23:18;;;;;;;8.60;5.80;;;;;;;7.43;100.00;100782.50;5073675;28;20487;-76
2023/03/01 11:25:51;;;;;;;8.02;5.43;;;;;;;7.26;100.00;100728.59;5073834;28;20465;-76
2023/03/01 11:28:19;;;;;;;9.20;6.50;;;;;;;7.77;100.00;100786.63;5073273;28;20032;-75
2023/03/01 11:31:03;;;;;;;12.32;7.13;;;;;;;8.00;100.00;100772.22;5073502;28;20079;-75
2023/03/01 11:33:43;;;;;;;11.10;6.00;;;;;;;7.34;100.00;100714.25;5072146;28;20491;-75